Time;durP1;ratioP1;P1;durP2;ratioP2;P2;SDS_P1;SDS_P2;PMS_P1;PMS_P2;Temp;Humidity;BMP_temperature;BMP_pressure;BME280_temperature;BME280_humidity;BME280_pressure;Samples;Min_cycle;Max_cycle;Signal;HPM_P1;HPM_P2
2022/08/10 00:00:50;;;;;;;5.88;2.47;;;;;;;19.28;39.19;100772.44;10330215;28;20419;-82
2022/08/10 00:05:53;;;;;;;6.40;2.72;;;;;;;19.30;39.42;100773.16;10331087;28;20062;-82
2022/08/10 00:10:56;;;;;;;5.30;2.95;;;;;;;19.41;39.55;100781.09;10339439;28;20054;-82
2022/08/10 00:15:59;;;;;;;5.05;2.70;;;;;;;19.40;39.28;100776.75;10348551;28;20104;-82
2022/08/10 00:21:00;;;;;;;7.75;2.88;;;;;;;19.35;39.60;100780.75;10335439;28;20050;-81
2022/08/10 00:26:04;;;;;;;6.45;3.10;;;;;;;19.06;40.55;100769.88;10353346;28;20054;-82
2022/08/10 00:31:06;;;;;;;4.55;2.95;;;;;;;19.06;40.41;100764.59;10359538;28;20050;-81
2022/08/10 00:36:07;;;;;;;8.27;2.85;;;;;;;19.08;40.49;100767.09;10332011;28;20088;-82
2022/08/10 00:41:09;;;;;;;5.07;2.75;;;;;;;18.93;41.18;100768.34;10339142;28;20054;-82
2022/08/10 00:46:11;;;;;;;5.25;2.80;;;;;;;18.90;41.00;100756.16;10340977;28;20050;-82
2022/08/10 00:51:13;;;;;;;7.07;2.90;;;;;;;18.70;41.53;100762.25;10334118;28;20057;-82
2022/08/10 00:56:15;;;;;;;5.00;2.85;;;;;;;18.53;41.66;100763.59;10334551;28;20499;-82
2022/08/10 01:01:37;;;;;;;5.30;2.95;;;;;;;18.34;42.39;100762.53;10364619;28;20052;-82
2022/08/10 01:07:24;;;;;;;8.00;3.10;;;;;;;18.43;42.30;100762.63;10332441;28;20072;-82
2022/08/10 01:12:45;;;;;;;7.72;2.90;;;;;;;18.42;42.29;100760.94;10356437;28;20042;-82
2022/08/10 01:18:02;;;;;;;7.38;2.97;;;;;;;18.33;43.18;100760.81;10355965;28;20065;-82
2022/08/10 01:23:28;;;;;;;5.75;2.83;;;;;;;18.10;43.60;100762.59;10344652;28;20039;-82
2022/08/10 01:28:56;;;;;;;7.50;3.20;;;;;;;17.62;44.33;100759.28;10357231;28;20105;-82
2022/08/10 01:34:07;;;;;;;7.68;3.10;;;;;;;17.17;45.74;100757.38;10352551;28;20057;-82
2022/08/10 01:39:16;;;;;;;6.95;3.20;;;;;;;17.23;45.52;100756.94;10354235;28;20061;-82
2022/08/10 01:44:36;;;;;;;4.70;3.03;;;;;;;17.46;45.13;100756.09;10332562;28;20050;-82
2022/08/10 01:49:38;;;;;;;4.57;3.05;;;;;;;17.59;44.44;100753.34;10336227;28;20042;-82
2022/08/10 01:54:41;;;;;;;5.40;3.10;;;;;;;17.62;44.51;100763.72;10337351;28;20077;-82
2022/08/10 01:59:45;;;;;;;8.50;3.10;;;;;;;17.56;45.08;100759.75;10334467;28;20045;-82
2022/08/10 02:05:05;;;;;;;5.47;3.00;;;;;;;17.58;45.48;100751.69;10336541;28;20066;-82
2022/08/10 02:10:11;;;;;;;4.60;3.05;;;;;;;17.53;45.43;100765.25;10334336;28;20054;-82
2022/08/10 02:15:19;;;;;;;4.90;3.00;;;;;;;17.11;46.55;100767.56;10349693;28;20108;-82
2022/08/10 02:20:26;;;;;;;4.72;3.30;;;;;;;16.83;47.16;100768.75;10350748;28;20050;-81
2022/08/10 02:25:33;;;;;;;6.85;3.42;;;;;;;16.63;47.12;100769.34;10329361;28;20089;-82
2022/08/10 02:30:44;;;;;;;5.22;3.10;;;;;;;16.81;47.18;100768.00;10360511;28;20046;-82
2022/08/10 02:35:50;;;;;;;5.68;3.30;;;;;;;16.95;46.88;100773.13;10335266;28;20057;-82
2022/08/10 02:41:01;;;;;;;8.95;3.10;;;;;;;16.72;47.10;100780.06;10352220;28;20046;-82
2022/08/10 02:46:32;;;;;;;9.93;3.70;;;;;;;16.77;47.44;100782.41;10329915;28;20053;-81
2022/08/10 02:51:51;;;;;;;6.57;3.20;;;;;;;16.23;48.62;100784.47;10349238;28;20050;-81
2022/08/10 03:03:19;;;;;;;6.97;3.78;;;;;;;16.16;48.20;100780.56;10338384;28;20050;-82
2022/08/10 03:08:27;;;;;;;9.63;3.67;;;;;;;16.21;48.22;100781.09;10346597;28;20053;-82
2022/08/10 03:13:31;;;;;;;5.40;3.03;;;;;;;16.28;48.18;100784.16;10334380;28;20050;-81
2022/08/10 03:18:34;;;;;;;5.50;3.40;;;;;;;16.46;47.85;100775.81;10335045;28;20476;-81
2022/08/10 03:23:38;;;;;;;6.30;3.80;;;;;;;16.16;48.39;100780.56;10324528;28;20053;-81
2022/08/10 03:28:40;;;;;;;13.45;3.63;;;;;;;16.20;48.47;100774.94;10341140;28;20054;-82
2022/08/10 03:33:43;;;;;;;5.88;3.50;;;;;;;16.26;48.40;100789.53;10339589;28;20058;-81
2022/08/10 03:38:50;;;;;;;7.35;3.55;;;;;;;16.36;48.14;100769.47;10332140;28;20246;-81
2022/08/10 03:43:53;;;;;;;6.68;4.00;;;;;;;16.29;49.31;100772.63;10347504;28;20050;-81
2022/08/10 03:49:00;;;;;;;6.60;3.90;;;;;;;16.27;49.73;100770.09;10342220;28;20061;-81
2022/08/10 03:54:03;;;;;;;6.30;3.67;;;;;;;16.28;49.27;100774.44;10356301;28;20192;-82
2022/08/10 03:59:10;;;;;;;8.15;3.90;;;;;;;16.30;49.81;100774.31;10339762;28;20054;-81
2022/08/10 04:04:13;;;;;;;5.53;3.72;;;;;;;16.16;50.11;100770.84;10351657;28;20348;-82
2022/08/10 04:09:29;;;;;;;6.15;3.78;;;;;;;15.97;50.76;100775.72;10354613;28;20096;-82
2022/08/10 04:14:50;;;;;;;5.07;3.65;;;;;;;15.98;50.37;100780.03;10335750;28;20440;-82
2022/08/10 04:19:56;;;;;;;6.43;3.85;;;;;;;16.07;50.35;100779.41;10342535;28;20054;-82
2022/08/10 04:25:02;;;;;;;6.13;3.78;;;;;;;15.94;50.26;100789.09;10340218;28;20503;-82
2022/08/10 04:30:04;;;;;;;8.52;3.80;;;;;;;15.95;50.51;100797.88;10334859;28;20133;-81
2022/08/10 04:35:09;;;;;;;7.38;3.92;;;;;;;16.05;50.26;100797.13;10337935;28;20058;-82
2022/08/10 04:40:11;;;;;;;7.10;3.83;;;;;;;16.12;50.68;100792.28;10336913;28;20050;-81
2022/08/10 04:45:30;;;;;;;5.20;3.72;;;;;;;16.20;50.41;100792.59;10336421;28;20097;-81
2022/08/10 04:50:51;;;;;;;6.43;3.92;;;;;;;17.19;48.75;100792.47;10354981;28;20570;-82
2022/08/10 04:55:53;;;;;;;7.10;3.80;;;;;;;17.78;47.16;100791.53;10341324;28;20058;-82
2022/08/10 05:00:55;;;;;;;10.23;3.95;;;;;;;18.16;46.19;100795.66;10338480;28;20054;-82
2022/08/10 05:05:57;;;;;;;5.70;3.55;;;;;;;19.15;44.12;100777.09;10338610;28;20149;-82
2022/08/10 05:11:01;;;;;;;10.18;4.00;;;;;;;20.35;42.65;100783.66;10334344;28;20050;-82
2022/08/10 05:16:03;;;;;;;8.45;4.15;;;;;;;21.55;40.51;100789.69;10334718;28;20054;-82
2022/08/10 05:21:05;;;;;;;5.90;3.42;;;;;;;20.88;40.68;100781.63;10333242;28;20074;-82
2022/08/10 05:26:07;;;;;;;6.75;3.42;;;;;;;19.96;42.57;100787.94;10341522;28;20450;-82
2022/08/10 05:31:09;;;;;;;7.35;3.53;;;;;;;19.39;43.77;100791.00;10334982;28;20085;-82
2022/08/10 05:36:17;;;;;;;6.22;3.42;;;;;;;19.17;44.08;100784.91;10333565;28;20049;-82
2022/08/10 05:41:19;;;;;;;6.63;3.70;;;;;;;18.84;44.69;100791.13;10346624;28;20050;-82
2022/08/10 05:46:21;;;;;;;5.93;3.70;;;;;;;18.35;46.13;100790.66;10336087;28;20053;-82
2022/08/10 05:51:24;;;;;;;4.95;3.22;;;;;;;18.07;47.53;100801.69;10341704;28;20308;-82
2022/08/10 05:56:26;;;;;;;7.97;4.00;;;;;;;18.24;47.38;100798.63;10325710;28;20051;-82
2022/08/10 06:01:50;;;;;;;8.18;3.50;;;;;;;18.51;46.12;100791.16;10329252;28;20133;-82
2022/08/10 06:07:15;;;;;;;4.93;3.50;;;;;;;18.79;46.39;100797.75;10347964;28;20064;-82
2022/08/10 06:12:22;;;;;;;;;;;;;;;18.48;47.53;100807.31;10330794;28;20104;-82
2022/08/10 06:17:31;;;;;;;5.10;3.53;;;;;;;18.80;46.06;100802.09;10333524;28;19992;-81
2022/08/10 06:22:34;;;;;;;7.68;3.70;;;;;;;19.17;44.62;100806.13;10336482;28;20089;-81
2022/08/10 06:27:37;;;;;;;6.32;3.58;;;;;;;19.28;43.27;100798.97;10333363;28;20149;-81
2022/08/10 06:32:40;;;;;;;9.07;3.60;;;;;;;19.46;42.66;100799.25;10350609;28;20464;-82
2022/08/10 06:37:43;;;;;;;6.63;3.50;;;;;;;19.54;42.18;100802.16;10331571;28;20708;-82
2022/08/10 06:42:53;;;;;;;6.40;3.55;;;;;;;19.73;42.11;100801.41;10333565;28;20042;-81
2022/08/10 06:48:03;;;;;;;6.10;3.20;;;;;;;20.07;41.32;100805.63;10347357;28;20089;-82
2022/08/10 06:53:14;;;;;;;12.00;3.30;;;;;;;20.30;40.60;100799.16;10339749;28;20054;-82
2022/08/10 06:58:20;;;;;;;6.07;3.08;;;;;;;20.59;40.04;100794.84;10333074;28;20058;-81
2022/08/10 07:03:35;;;;;;;6.78;3.50;;;;;;;20.96;39.31;100808.38;10326472;28;20511;-82
2022/08/10 07:08:38;;;;;;;;;;;;;;;20.86;39.48;100803.03;10351993;28;20050;-82
2022/08/10 07:13:42;;;;;;;6.13;3.03;;;;;;;21.26;38.66;100813.59;10342473;28;20343;-82
2022/08/10 07:19:07;;;;;;;5.28;2.80;;;;;;;21.47;38.13;100802.88;10357844;28;20713;-83
2022/08/10 07:24:14;;;;;;;6.45;3.17;;;;;;;21.39;37.93;100803.56;10359489;28;20085;-82
2022/08/10 07:29:18;;;;;;;7.22;3.13;;;;;;;21.69;37.82;100800.75;10354905;28;20135;-83
2022/08/10 07:34:41;;;;;;;6.32;2.85;;;;;;;21.68;37.27;100803.56;10342862;28;20305;-82
2022/08/10 07:39:46;;;;;;;8.55;3.13;;;;;;;22.08;36.95;100798.91;10331976;28;20049;-82
2022/08/10 07:45:05;;;;;;;7.07;3.35;;;;;;;23.48;34.69;100793.13;10336086;28;20415;-82
2022/08/10 07:50:10;;;;;;;7.22;3.00;;;;;;;24.55;33.23;100793.69;10340414;28;20045;-82
2022/08/10 07:55:17;;;;;;;6.07;2.95;;;;;;;25.63;30.84;100794.50;10348912;28;20104;-83
2022/08/10 08:00:20;;;;;;;11.32;3.20;;;;;;;26.20;30.10;100795.28;10339696;28;20054;-82
2022/08/10 08:05:25;;;;;;;7.18;3.20;;;;;;;26.65;29.66;100784.75;10341350;28;20058;-82
2022/08/10 08:10:48;;;;;;;7.55;2.80;;;;;;;27.46;28.22;100791.34;10346357;28;20054;-83
2022/08/10 08:15:52;;;;;;;5.88;2.78;;;;;;;27.70;27.61;100778.72;10329352;28;20069;-82
2022/08/10 08:21:14;;;;;;;8.48;3.08;;;;;;;27.96;27.19;100780.00;10339616;28;20060;-82
2022/08/10 08:26:38;;;;;;;9.45;2.70;;;;;;;27.82;26.80;100777.28;10328218;28;20062;-82
2022/08/10 08:31:40;;;;;;;9.27;2.85;;;;;;;28.61;25.91;100774.75;10334727;28;20050;-82
2022/08/10 08:37:04;;;;;;;6.55;2.72;;;;;;;28.73;25.40;100775.94;10339910;28;20503;-83
2022/08/10 08:42:24;;;;;;;9.88;2.63;;;;;;;28.67;24.88;100771.31;10339344;28;20058;-82
2022/08/10 08:47:44;;;;;;;9.32;2.78;;;;;;;28.75;24.67;100767.66;10353322;28;20467;-82
2022/08/10 08:53:27;;;;;;;8.75;2.70;;;;;;;29.23;25.09;100755.38;10335154;28;20222;-82
2022/08/10 08:59:19;;;;;;;7.80;2.60;;;;;;;29.94;23.61;100755.22;10343948;28;20078;-83
2022/08/10 09:04:47;;;;;;;10.07;2.40;;;;;;;30.43;22.71;100750.53;10334802;28;20062;-83
2022/08/10 09:10:20;;;;;;;11.80;2.75;;;;;;;30.35;23.01;100742.59;10342931;28;20058;-82
2022/08/10 09:15:34;;;;;;;5.30;2.30;;;;;;;30.68;22.43;100740.88;10356762;28;20053;-83
2022/08/10 09:20:48;;;;;;;7.13;2.38;;;;;;;30.75;22.15;100729.28;10329761;28;20515;-83
2022/08/10 09:25:54;;;;;;;5.57;2.30;;;;;;;30.48;22.97;100731.88;10358641;28;20065;-83
2022/08/10 09:31:01;;;;;;;4.82;2.50;;;;;;;30.55;23.12;100721.97;10339520;28;20135;-80
2022/08/10 09:36:28;;;;;;;7.25;2.17;;;;;;;30.91;22.15;100718.09;10348689;28;20151;-80
2022/08/10 09:42:05;;;;;;;4.68;2.30;;;;;;;30.99;22.15;100712.53;10333218;28;20054;-80
2022/08/10 09:47:18;;;;;;;7.90;2.38;;;;;;;31.05;21.53;100707.13;10354070;28;20507;-80
2022/08/10 09:52:53;;;;;;;3.50;2.05;;;;;;;30.36;21.60;100701.06;10336095;28;20180;-80
2022/08/10 09:58:24;;;;;;;5.55;2.00;;;;;;;30.80;22.33;100697.09;10428944;28;20618;-58
2022/08/10 10:03:32;;;;;;;11.40;2.38;;;;;;;31.05;20.93;100688.22;10429109;28;20459;-59
2022/08/10 10:09:02;;;;;;;3.78;1.60;;;;;;;30.58;20.62;100694.53;10428083;28;20132;-58
2022/08/10 10:14:24;;;;;;;5.78;1.70;;;;;;;30.31;20.44;100675.72;10425866;28;20052;-59
2022/08/10 10:19:49;;;;;;;4.25;1.65;;;;;;;30.47;20.38;100670.00;10427865;28;20144;-58
2022/08/10 10:25:17;;;;;;;5.13;2.15;;;;;;;30.24;21.06;100664.06;10428021;28;20104;-58
2022/08/10 10:30:25;;;;;;;7.03;1.90;;;;;;;30.74;20.79;100652.00;10427767;28;20048;-58
2022/08/10 10:35:40;;;;;;;6.88;1.73;;;;;;;30.55;20.21;100657.16;10427045;28;20144;-58
2022/08/10 10:41:00;;;;;;;4.03;1.83;;;;;;;30.00;20.92;100668.09;10426820;28;20465;-58
2022/08/10 10:46:13;;;;;;;4.68;1.67;;;;;;;30.15;20.65;100635.59;10426737;28;20521;-58
2022/08/10 10:51:30;;;;;;;5.07;1.90;;;;;;;30.21;21.31;100643.72;10426133;28;20049;-59
2022/08/10 10:56:48;;;;;;;8.00;1.80;;;;;;;29.88;20.64;100645.41;10426592;28;20101;-58
2022/08/10 11:02:17;;;;;;;4.75;1.80;;;;;;;29.81;21.02;100639.13;10426195;28;20139;-58
2022/08/10 11:07:31;;;;;;;3.53;2.00;;;;;;;29.88;20.68;100630.06;10397553;28;20077;-58
2022/08/10 11:13:11;;;;;;;4.47;2.03;;;;;;;29.67;21.41;100629.28;10398564;28;20050;-58
2022/08/10 11:18:48;;;;;;;6.72;2.10;;;;;;;29.86;21.40;100610.53;10397969;28;20056;-58
2022/08/10 11:23:55;;;;;;;5.60;1.90;;;;;;;29.40;21.21;100614.00;10397873;28;20103;-58
2022/08/10 11:29:29;;;;;;;5.25;1.90;;;;;;;29.26;21.45;100613.03;10397620;28;20049;-58
2022/08/10 11:34:40;;;;;;;4.30;1.60;;;;;;;28.95;21.12;100615.28;10397621;28;20152;-58
2022/08/10 11:40:03;;;;;;;;;;;;;;;28.51;21.59;100601.97;10398603;28;20136;-58
2022/08/10 11:45:05;;;;;;;7.18;1.95;;;;;;;29.32;20.84;100600.63;10397297;28;20699;-58
2022/08/10 11:50:23;;;;;;;3.38;1.90;;;;;;;29.56;20.49;100589.44;10396855;28;20072;-58
2022/08/10 11:55:30;;;;;;;4.20;1.77;;;;;;;29.92;19.92;100599.97;10397234;28;20588;-58
2022/08/10 12:00:36;;;;;;;3.50;1.70;;;;;;;29.75;19.81;100583.28;10396579;28;20049;-58
2022/08/10 12:05:40;;;;;;;6.22;1.98;;;;;;;29.84;19.74;100577.56;10396156;28;20685;-58
2022/08/10 12:10:57;;;;;;;5.13;1.80;;;;;;;29.90;20.05;100575.91;10395725;28;20051;-58
2022/08/10 12:16:18;;;;;;;6.72;2.00;;;;;;;29.58;19.81;100565.81;10396362;28;20523;-59
2022/08/10 12:21:26;;;;;;;6.40;2.00;;;;;;;29.89;19.32;100558.03;10394863;28;20471;-58
2022/08/10 12:26:36;;;;;;;5.30;1.88;;;;;;;29.91;19.37;100565.97;10395042;28;20481;-58
2022/08/10 12:32:07;;;;;;;4.10;1.85;;;;;;;29.77;19.21;100570.44;10395380;28;20084;-58
2022/08/10 12:37:16;;;;;;;6.43;1.90;;;;;;;29.68;19.51;100542.81;10394955;28;20136;-58
2022/08/10 12:42:27;;;;;;;6.38;2.10;;;;;;;29.77;18.58;100548.88;10395057;28;20128;-58
2022/08/10 12:47:56;;;;;;;5.80;2.08;;;;;;;29.47;19.21;100528.63;10394360;28;20409;-58
2022/08/10 12:53:20;;;;;;;5.57;2.40;;;;;;;29.41;19.78;100532.94;10393914;28;20563;-59
2022/08/10 12:58:24;;;;;;;7.57;2.45;;;;;;;29.73;19.60;100515.25;10392983;28;20140;-59
2022/08/10 13:03:48;;;;;;;7.90;2.10;;;;;;;30.11;19.63;100515.63;10393390;28;20092;-58
2022/08/10 13:09:12;;;;;;;6.32;2.10;;;;;;;29.97;19.42;100503.94;10394337;28;20068;-58
2022/08/10 13:14:20;;;;;;;6.43;2.05;;;;;;;30.18;18.80;100503.81;10392437;28;20099;-58
2022/08/10 13:19:27;;;;;;;5.93;2.00;;;;;;;30.26;18.78;100492.81;10393457;28;20061;-58
2022/08/10 13:24:51;;;;;;;6.45;2.03;;;;;;;30.36;18.43;100490.53;10393292;28;20041;-58
2022/08/10 13:30:05;;;;;;;9.02;2.10;;;;;;;30.26;18.00;100476.63;10393376;28;20132;-58
2022/08/10 13:35:16;;;;;;;7.55;1.90;;;;;;;30.32;18.69;100462.31;10392851;28;20390;-58
2022/08/10 13:40:19;;;;;;;6.50;1.80;;;;;;;30.34;17.85;100465.63;10392859;28;20049;-58
2022/08/10 13:45:24;;;;;;;7.93;2.10;;;;;;;30.52;17.67;100452.38;10392860;28;20046;-58
2022/08/10 13:50:27;;;;;;;4.70;1.90;;;;;;;30.72;17.42;100462.34;10392393;28;20053;-58
2022/08/10 13:55:42;;;;;;;4.50;1.90;;;;;;;30.85;17.30;100444.25;10392237;28;20870;-58
2022/08/10 14:00:58;;;;;;;3.05;1.70;;;;;;;30.83;17.09;100451.72;10392722;28;20053;-58
2022/08/10 14:06:04;;;;;;;8.63;2.00;;;;;;;30.61;17.36;100440.34;10392484;28;20048;-58
2022/08/10 14:11:11;;;;;;;5.38;1.88;;;;;;;30.50;16.91;100432.84;10392460;28;20718;-58
2022/08/10 14:16:14;;;;;;;6.60;1.90;;;;;;;30.40;17.33;100440.50;10392012;28;20532;-58
2022/08/10 14:21:16;;;;;;;7.78;1.90;;;;;;;30.24;17.25;100454.41;10390710;28;20136;-58
2022/08/10 14:26:24;;;;;;;4.55;1.80;;;;;;;30.35;17.42;100426.81;10392322;28;20050;-58
2022/08/10 14:31:33;;;;;;;7.07;1.95;;;;;;;30.66;16.92;100412.72;10391803;28;20080;-58
2022/08/10 14:36:50;;;;;;;5.63;1.73;;;;;;;30.53;17.48;100410.84;10391810;28;20093;-58
2022/08/10 14:41:56;;;;;;;6.43;1.60;;;;;;;30.61;17.36;100402.53;10394148;28;20532;-58
2022/08/10 14:47:09;;;;;;;5.78;1.77;;;;;;;30.50;17.20;100403.16;10399338;28;20053;-58
2022/08/10 14:52:38;;;;;;;3.63;1.80;;;;;;;30.53;16.25;100397.34;10398772;28;20394;-58
2022/08/10 14:57:46;;;;;;;5.50;1.90;;;;;;;30.69;17.33;100387.97;10398705;28;20061;-58
2022/08/10 15:03:09;;;;;;;2.97;1.90;;;;;;;30.56;16.97;100399.63;10398899;28;20061;-58
2022/08/10 15:08:31;;;;;;;2.90;1.83;;;;;;;30.37;16.54;100408.56;10399147;28;20067;-58
2022/08/10 15:13:43;;;;;;;4.55;1.98;;;;;;;30.66;16.50;100393.81;10398198;28;20049;-58
2022/08/10 15:19:08;;;;;;;4.75;1.98;;;;;;;30.38;16.38;100403.97;10398469;28;20100;-58
2022/08/10 15:29:54;;;;;;;9.15;1.95;;;;;;;30.60;16.55;100392.75;10397850;28;20064;-58
2022/08/10 15:40:30;;;;;;;11.07;2.15;;;;;;;30.35;16.63;100378.25;10397024;28;20041;-58
2022/08/10 15:45:54;;;;;;;6.95;1.90;;;;;;;30.35;16.35;100372.00;10397417;28;20124;-58
2022/08/10 15:51:08;;;;;;;3.97;1.80;;;;;;;30.21;16.21;100367.66;10396816;28;20050;-58
2022/08/10 15:56:15;;;;;;;9.10;2.00;;;;;;;30.22;16.36;100364.75;10396047;28;20428;-58
2022/08/10 16:01:47;;;;;;;4.60;1.70;;;;;;;30.42;16.42;100365.56;10396131;28;20469;-58
2022/08/10 16:07:20;;;;;;;4.78;1.90;;;;;;;30.54;16.51;100354.97;10395586;28;20053;-58
2022/08/10 16:12:37;;;;;;;3.15;1.75;;;;;;;30.40;16.83;100358.69;10395979;28;20053;-58
2022/08/10 16:17:49;;;;;;;5.40;2.30;;;;;;;30.26;17.01;100355.19;10395489;28;20929;-58
2022/08/10 16:23:00;;;;;;;4.75;1.80;;;;;;;30.11;16.79;100357.25;10395642;28;20053;-58
2022/08/10 16:28:05;;;;;;;9.02;2.00;;;;;;;30.11;17.15;100356.47;10395410;28;20050;-58
2022/08/10 16:33:09;;;;;;;4.78;1.95;;;;;;;30.15;16.82;100352.31;10394996;28;20148;-58
2022/08/10 16:38:12;;;;;;;6.20;2.15;;;;;;;30.00;17.04;100352.50;10394881;28;20457;-58
2022/08/10 16:43:18;;;;;;;5.70;2.03;;;;;;;29.81;17.25;100340.63;10394803;28;20132;-58
2022/08/10 16:48:31;;;;;;;4.38;1.90;;;;;;;29.80;17.37;100347.09;10394631;28;20063;-58
2022/08/10 16:53:51;;;;;;;6.00;1.98;;;;;;;29.95;17.62;100346.09;10394010;28;20053;-58
2022/08/10 16:58:56;;;;;;;5.25;2.22;;;;;;;29.91;17.33;100342.91;10376382;28;20053;-58
2022/08/10 17:04:03;;;;;;;6.82;2.00;;;;;;;29.76;17.49;100336.91;10393758;28;20273;-58
2022/08/10 17:09:17;;;;;;;4.45;1.90;;;;;;;29.73;17.67;100342.69;10393438;28;20631;-58
2022/08/10 17:14:25;;;;;;;3.42;2.03;;;;;;;29.81;18.01;100340.63;10393860;28;20096;-58
2022/08/10 17:19:33;;;;;;;5.50;1.80;;;;;;;29.56;17.93;100330.66;10392221;28;20084;-58
2022/08/10 17:24:42;;;;;;;6.15;2.00;;;;;;;29.26;17.85;100337.38;10392312;28;20061;-58
2022/08/10 17:29:46;;;;;;;;;;;;;;;28.77;18.25;100340.25;10394189;28;20133;-58
2022/08/10 17:35:09;;;;;;;7.65;2.00;;;;;;;29.13;18.36;100331.97;10393259;28;20011;-58
2022/08/10 17:40:15;;;;;;;5.93;1.90;;;;;;;28.98;18.53;100338.31;10392796;28;20085;-58
2022/08/10 17:45:29;;;;;;;4.90;2.72;;;;;;;28.84;18.64;100346.50;10391456;28;20139;-58
2022/08/10 17:50:50;;;;;;;4.53;1.98;;;;;;;28.65;18.88;100350.75;10392800;28;20041;-58
2022/08/10 17:55:56;;;;;;;8.35;2.17;;;;;;;28.55;18.55;100344.06;10392094;28;20085;-58
2022/08/10 18:01:01;;;;;;;5.15;2.10;;;;;;;28.54;18.92;100345.09;10391102;28;20430;-58
2022/08/10 18:06:27;;;;;;;6.25;2.08;;;;;;;28.31;19.11;100353.41;10391333;28;20060;-58
2022/08/10 18:11:33;;;;;;;9.10;2.15;;;;;;;28.09;19.22;100358.00;10392339;28;20100;-58
2022/08/10 18:16:37;;;;;;;4.57;2.00;;;;;;;28.02;19.60;100350.88;10395523;28;20421;-58
2022/08/10 18:21:46;;;;;;;7.15;1.95;;;;;;;27.91;19.84;100359.47;10400384;28;20053;-58
2022/08/10 18:26:51;;;;;;;4.97;2.10;;;;;;;27.78;19.90;100364.72;10400009;28;20560;-58
2022/08/10 18:32:01;;;;;;;7.75;2.10;;;;;;;27.56;19.97;100365.69;10382480;28;20338;-58
2022/08/10 18:37:06;;;;;;;6.45;2.30;;;;;;;27.27;20.35;100372.81;10399826;28;20099;-57
2022/08/10 18:42:13;;;;;;;5.35;2.30;;;;;;;27.04;20.63;100369.38;10400177;28;20041;-60
2022/08/10 18:47:22;;;;;;;5.82;2.30;;;;;;;26.82;21.03;100385.59;10399483;28;20144;-58
2022/08/10 18:52:25;;;;;;;;;;;;;;;26.26;21.65;100387.00;10399940;28;20386;-58
2022/08/10 18:58:09;;;;;;;7.38;2.00;;;;;;;26.34;21.78;100387.75;10399531;28;19921;-58
2022/08/10 19:03:50;;;;;;;4.70;2.03;;;;;;;26.16;21.97;100392.59;10398790;28;20136;-58
2022/08/10 19:09:20;;;;;;;5.47;2.10;;;;;;;26.01;22.49;100396.25;10392723;28;20420;-58
2022/08/10 19:14:50;;;;;;;6.20;2.20;;;;;;;25.86;22.83;100399.69;10391173;28;20049;-58
2022/08/10 19:20:17;;;;;;;5.07;2.15;;;;;;;25.68;23.26;100409.00;10398288;28;20556;-58
2022/08/10 19:25:44;;;;;;;5.78;2.50;;;;;;;25.45;23.83;100414.34;10397752;28;20128;-58
2022/08/10 19:31:11;;;;;;;6.95;2.33;;;;;;;25.40;23.61;100416.72;10397224;28;20049;-58
2022/08/10 19:36:31;;;;;;;9.35;2.08;;;;;;;25.24;24.17;100413.25;10397517;28;20139;-58
2022/08/10 19:41:41;;;;;;;8.88;2.38;;;;;;;25.06;24.56;100421.53;10397138;28;20483;-58
2022/08/10 19:47:24;;;;;;;8.18;2.22;;;;;;;24.71;24.59;100430.81;10397362;28;20053;-58
2022/08/10 19:52:33;;;;;;;;;;;;;;;24.24;25.75;100428.00;10390480;28;20081;-58
2022/08/10 19:57:48;;;;;;;4.90;2.38;;;;;;;24.42;25.62;100435.00;10396311;28;19980;-58
2022/08/10 20:03:19;;;;;;;5.50;2.25;;;;;;;24.38;25.69;100439.84;10396306;28;20130;-58
2022/08/10 20:08:30;;;;;;;6.20;2.30;;;;;;;24.34;25.91;100443.00;10396799;28;20095;-58
2022/08/10 20:13:45;;;;;;;5.13;2.10;;;;;;;24.20;26.47;100448.03;10396387;28;20049;-58
2022/08/10 20:18:52;;;;;;;7.00;2.20;;;;;;;24.10;26.53;100458.03;10395634;28;20502;-58
2022/08/10 20:24:11;;;;;;;7.78;2.20;;;;;;;23.86;26.80;100459.81;10395296;28;20132;-58
2022/08/10 20:29:17;;;;;;;7.07;2.40;;;;;;;23.74;27.19;100463.78;10395070;28;20433;-58
2022/08/10 20:34:46;;;;;;;7.80;2.30;;;;;;;23.50;27.51;100467.22;10394901;28;20056;-58
2022/08/10 20:39:58;;;;;;;6.68;2.47;;;;;;;23.31;28.15;100464.75;10394031;28;20049;-58
2022/08/10 20:45:05;;;;;;;7.35;2.17;;;;;;;23.19;28.29;100471.38;10395299;28;20049;-58
2022/08/10 20:50:10;;;;;;;6.10;2.30;;;;;;;23.13;27.96;100478.19;10394630;28;20052;-58
2022/08/10 20:55:13;;;;;;;7.18;2.35;;;;;;;23.05;28.51;100471.97;10394216;28;20465;-57
2022/08/10 21:00:19;;;;;;;5.97;2.65;;;;;;;22.98;28.28;100484.28;10394055;28;20631;-58
2022/08/10 21:05:51;;;;;;;8.17;2.60;;;;;;;22.67;29.22;100474.06;10393736;28;20115;-58
2022/08/10 21:11:19;;;;;;;4.22;2.45;;;;;;;22.50;29.30;100476.72;10394095;28;20057;-58
2022/08/10 21:16:30;;;;;;;5.60;2.22;;;;;;;22.44;29.53;100483.53;10393613;28;20187;-58
2022/08/10 21:21:43;;;;;;;4.82;2.30;;;;;;;22.43;30.03;100479.16;10393478;28;20056;-58
2022/08/10 23:01:41;;;;;;;4.50;2.20;;;;;;;20.61;33.40;100465.97;10391504;28;20368;-58
2022/08/10 23:07:17;;;;;;;6.72;2.28;;;;;;;20.34;33.68;100471.13;10397774;28;20057;-58
2022/08/10 23:12:33;;;;;;;7.32;2.50;;;;;;;20.08;34.35;100460.25;10398331;28;20124;-58
2022/08/10 23:23:04;;;;;;;3.60;2.28;;;;;;;20.09;34.51;100475.19;10397911;28;20049;-58
2022/08/10 23:28:12;;;;;;;7.00;2.50;;;;;;;20.02;34.57;100474.09;10397701;28;20049;-58
2022/08/10 23:33:24;;;;;;;5.45;2.45;;;;;;;19.87;35.05;100480.75;10396361;28;20055;-58
2022/08/10 23:38:40;;;;;;;4.43;2.50;;;;;;;19.58;35.58;100473.69;10397466;28;20177;-58
2022/08/10 23:43:44;;;;;;;6.40;2.40;;;;;;;19.46;35.77;100475.59;10397472;28;20080;-57
2022/08/10 23:49:06;;;;;;;5.00;2.33;;;;;;;19.42;36.05;100475.03;10396834;28;20140;-58
2022/08/10 23:54:13;;;;;;;4.63;2.50;;;;;;;19.30;36.63;100470.81;10396688;28;20080;-57
2022/08/10 23:59:18;;;;;;;5.07;2.40;;;;;;;19.33;36.45;100472.34;10396558;28;20502;-57
